sensor_id;sensor_type;location;lat;lon;timestamp;P1;durP1;ratioP1;P2;durP2;ratioP2
10450;SDS011;5273;51.290;6.918;2023-02-28T00:01:20;5.13;;;3.87;;
10450;SDS011;5273;51.290;6.918;2023-02-28T00:03:56;6.40;;;3.60;;
10450;SDS011;5273;51.290;6.918;2023-02-28T00:06:29;5.00;;;3.43;;
10450;SDS011;5273;51.290;6.918;2023-02-28T00:09:11;5.03;;;3.73;;
10450;SDS011;5273;51.290;6.918;2023-02-28T00:11:46;3.83;;;3.30;;
10450;SDS011;5273;51.290;6.918;2023-02-28T00:14:19;4.97;;;3.47;;
10450;SDS011;5273;51.290;6.918;2023-02-28T00:16:52;5.67;;;3.77;;
10450;SDS011;5273;51.290;6.918;2023-02-28T00:19:21;5.43;;;3.70;;
10450;SDS011;5273;51.290;6.918;2023-02-28T00:21:55;4.23;;;3.17;;
10450;SDS011;5273;51.290;6.918;2023-02-28T00:24:35;6.00;;;3.80;;
10450;SDS011;5273;51.290;6.918;2023-02-28T00:27:14;3.90;;;3.20;;
10450;SDS011;5273;51.290;6.918;2023-02-28T00:29:45;6.83;;;3.23;;
10450;SDS011;5273;51.290;6.918;2023-02-28T00:32:21;7.33;;;3.90;;
10450;SDS011;5273;51.290;6.918;2023-02-28T00:34:52;6.20;;;3.40;;
10450;SDS011;5273;51.290;6.918;2023-02-28T00:37:21;4.63;;;3.50;;
10450;SDS011;5273;51.290;6.918;2023-02-28T00:39:57;5.07;;;3.53;;
10450;SDS011;5273;51.290;6.918;2023-02-28T00:42:34;7.67;;;4.00;;
10450;SDS011;5273;51.290;6.918;2023-02-28T00:45:04;4.97;;;3.60;;
10450;SDS011;5273;51.290;6.918;2023-02-28T00:47:40;7.20;;;3.57;;
10450;SDS011;5273;51.290;6.918;2023-02-28T00:50:15;5.77;;;3.30;;
10450;SDS011;5273;51.290;6.918;2023-02-28T00:53:02;4.77;;;3.30;;
10450;SDS011;5273;51.290;6.918;2023-02-28T00:55:37;8.27;;;3.53;;
10450;SDS011;5273;51.290;6.918;2023-02-28T00:58:10;6.20;;;3.77;;
10450;SDS011;5273;51.290;6.918;2023-02-28T01:00:44;3.90;;;3.50;;
10450;SDS011;5273;51.290;6.918;2023-02-28T01:03:20;6.37;;;3.70;;
10450;SDS011;5273;51.290;6.918;2023-02-28T01:06:00;4.93;;;3.37;;
10450;SDS011;5273;51.290;6.918;2023-02-28T01:08:30;7.90;;;3.57;;
10450;SDS011;5273;51.290;6.918;2023-02-28T01:11:06;4.07;;;3.23;;
10450;SDS011;5273;51.290;6.918;2023-02-28T01:13:45;5.47;;;3.60;;
10450;SDS011;5273;51.290;6.918;2023-02-28T01:16:21;7.50;;;3.43;;
10450;SDS011;5273;51.290;6.918;2023-02-28T01:18:57;5.30;;;3.80;;
10450;SDS011;5273;51.290;6.918;2023-02-28T01:21:33;5.67;;;3.63;;
10450;SDS011;5273;51.290;6.918;2023-02-28T01:24:01;6.90;;;3.57;;
10450;SDS011;5273;51.290;6.918;2023-02-28T01:26:37;7.90;;;3.50;;
10450;SDS011;5273;51.290;6.918;2023-02-28T01:29:09;6.23;;;3.73;;
10450;SDS011;5273;51.290;6.918;2023-02-28T01:31:48;5.50;;;3.37;;
10450;SDS011;5273;51.290;6.918;2023-02-28T01:34:20;8.10;;;3.20;;
10450;SDS011;5273;51.290;6.918;2023-02-28T01:36:47;9.10;;;3.40;;
10450;SDS011;5273;51.290;6.918;2023-02-28T01:39:18;5.50;;;3.70;;
10450;SDS011;5273;51.290;6.918;2023-02-28T01:41:48;4.20;;;3.20;;
10450;SDS011;5273;51.290;6.918;2023-02-28T01:47:27;8.27;;;3.80;;
10450;SDS011;5273;51.290;6.918;2023-02-28T01:50:07;4.57;;;3.50;;
10450;SDS011;5273;51.290;6.918;2023-02-28T01:52:57;4.07;;;3.50;;
10450;SDS011;5273;51.290;6.918;2023-02-28T01:55:35;8.43;;;3.87;;
10450;SDS011;5273;51.290;6.918;2023-02-28T01:58:10;8.63;;;4.07;;
10450;SDS011;5273;51.290;6.918;2023-02-28T02:00:51;5.03;;;3.10;;
10450;SDS011;5273;51.290;6.918;2023-02-28T02:03:22;5.67;;;3.30;;
10450;SDS011;5273;51.290;6.918;2023-02-28T02:05:55;6.33;;;3.77;;
10450;SDS011;5273;51.290;6.918;2023-02-28T02:08:31;6.50;;;3.80;;
10450;SDS011;5273;51.290;6.918;2023-02-28T02:11:04;6.53;;;3.90;;
10450;SDS011;5273;51.290;6.918;2023-02-28T02:13:48;5.33;;;3.57;;
10450;SDS011;5273;51.290;6.918;2023-02-28T02:16:34;4.73;;;3.70;;
10450;SDS011;5273;51.290;6.918;2023-02-28T02:19:16;7.37;;;4.30;;
10450;SDS011;5273;51.290;6.918;2023-02-28T02:22:12;5.07;;;3.87;;
10450;SDS011;5273;51.290;6.918;2023-02-28T02:25:04;5.37;;;3.73;;
10450;SDS011;5273;51.290;6.918;2023-02-28T02:27:58;10.63;;;4.80;;
10450;SDS011;5273;51.290;6.918;2023-02-28T02:30:59;5.40;;;4.20;;
10450;SDS011;5273;51.290;6.918;2023-02-28T02:37:05;6.13;;;4.57;;
10450;SDS011;5273;51.290;6.918;2023-02-28T02:39:42;4.20;;;3.80;;
10450;SDS011;5273;51.290;6.918;2023-02-28T02:42:14;5.07;;;4.00;;
10450;SDS011;5273;51.290;6.918;2023-02-28T02:44:46;8.63;;;4.50;;
10450;SDS011;5273;51.290;6.918;2023-02-28T02:47:19;5.90;;;3.90;;
10450;SDS011;5273;51.290;6.918;2023-02-28T02:49:50;6.97;;;4.10;;
10450;SDS011;5273;51.290;6.918;2023-02-28T02:52:22;6.00;;;4.00;;
10450;SDS011;5273;51.290;6.918;2023-02-28T02:54:53;7.57;;;4.03;;
10450;SDS011;5273;51.290;6.918;2023-02-28T02:57:22;6.63;;;4.10;;
10450;SDS011;5273;51.290;6.918;2023-02-28T02:59:52;7.27;;;3.97;;
10450;SDS011;5273;51.290;6.918;2023-02-28T03:02:20;7.10;;;4.17;;
10450;SDS011;5273;51.290;6.918;2023-02-28T03:04:53;5.23;;;3.90;;
10450;SDS011;5273;51.290;6.918;2023-02-28T03:07:25;6.83;;;3.77;;
10450;SDS011;5273;51.290;6.918;2023-02-28T03:09:53;6.17;;;4.20;;
10450;SDS011;5273;51.290;6.918;2023-02-28T03:12:20;4.03;;;3.50;;
10450;SDS011;5273;51.290;6.918;2023-02-28T03:14:59;6.07;;;3.30;;
10450;SDS011;5273;51.290;6.918;2023-02-28T03:20:27;3.60;;;2.83;;
10450;SDS011;5273;51.290;6.918;2023-02-28T03:23:07;4.63;;;3.23;;
10450;SDS011;5273;51.290;6.918;2023-02-28T03:25:44;6.27;;;2.93;;
10450;SDS011;5273;51.290;6.918;2023-02-28T03:28:21;5.00;;;3.07;;
10450;SDS011;5273;51.290;6.918;2023-02-28T03:30:57;3.63;;;2.70;;
10450;SDS011;5273;51.290;6.918;2023-02-28T03:33:30;4.60;;;3.07;;
10450;SDS011;5273;51.290;6.918;2023-02-28T03:36:04;8.50;;;3.73;;
10450;SDS011;5273;51.290;6.918;2023-02-28T03:38:35;4.60;;;3.20;;
10450;SDS011;5273;51.290;6.918;2023-02-28T03:41:06;8.90;;;3.43;;
10450;SDS011;5273;51.290;6.918;2023-02-28T03:43:39;5.80;;;3.23;;
10450;SDS011;5273;51.290;6.918;2023-02-28T03:46:09;4.60;;;2.93;;
10450;SDS011;5273;51.290;6.918;2023-02-28T03:48:40;4.20;;;2.63;;
10450;SDS011;5273;51.290;6.918;2023-02-28T03:51:12;3.57;;;2.67;;
10450;SDS011;5273;51.290;6.918;2023-02-28T03:53:44;6.63;;;2.67;;
10450;SDS011;5273;51.290;6.918;2023-02-28T03:56:14;3.80;;;3.37;;
10450;SDS011;5273;51.290;6.918;2023-02-28T03:58:45;4.47;;;2.50;;
10450;SDS011;5273;51.290;6.918;2023-02-28T04:01:18;2.77;;;2.30;;
10450;SDS011;5273;51.290;6.918;2023-02-28T04:03:49;3.00;;;2.40;;
10450;SDS011;5273;51.290;6.918;2023-02-28T04:06:18;2.80;;;2.60;;
10450;SDS011;5273;51.290;6.918;2023-02-28T04:08:46;3.47;;;2.53;;
10450;SDS011;5273;51.290;6.918;2023-02-28T04:11:17;3.90;;;2.13;;
10450;SDS011;5273;51.290;6.918;2023-02-28T04:13:50;3.13;;;2.63;;
10450;SDS011;5273;51.290;6.918;2023-02-28T04:16:23;2.43;;;2.13;;
10450;SDS011;5273;51.290;6.918;2023-02-28T04:18:52;6.07;;;2.77;;
10450;SDS011;5273;51.290;6.918;2023-02-28T04:21:31;8.27;;;2.83;;
10450;SDS011;5273;51.290;6.918;2023-02-28T04:24:13;5.10;;;2.30;;
10450;SDS011;5273;51.290;6.918;2023-02-28T04:26:56;3.07;;;2.30;;
10450;SDS011;5273;51.290;6.918;2023-02-28T04:29:29;2.50;;;2.30;;
10450;SDS011;5273;51.290;6.918;2023-02-28T04:32:00;2.60;;;2.30;;
10450;SDS011;5273;51.290;6.918;2023-02-28T04:34:33;2.83;;;2.50;;
10450;SDS011;5273;51.290;6.918;2023-02-28T04:37:05;3.37;;;2.50;;
10450;SDS011;5273;51.290;6.918;2023-02-28T04:39:34;3.80;;;2.53;;
10450;SDS011;5273;51.290;6.918;2023-02-28T04:42:08;4.07;;;2.47;;
10450;SDS011;5273;51.290;6.918;2023-02-28T04:44:39;4.33;;;2.10;;
10450;SDS011;5273;51.290;6.918;2023-02-28T04:47:24;4.00;;;2.20;;
10450;SDS011;5273;51.290;6.918;2023-02-28T04:50:02;3.03;;;2.40;;
10450;SDS011;5273;51.290;6.918;2023-02-28T04:52:36;2.80;;;2.50;;
10450;SDS011;5273;51.290;6.918;2023-02-28T04:55:06;2.97;;;2.50;;
10450;SDS011;5273;51.290;6.918;2023-02-28T04:57:36;3.40;;;2.30;;
10450;SDS011;5273;51.290;6.918;2023-02-28T05:00:10;3.57;;;2.33;;
10450;SDS011;5273;51.290;6.918;2023-02-28T05:02:47;2.47;;;2.20;;
10450;SDS011;5273;51.290;6.918;2023-02-28T05:05:14;2.67;;;2.43;;
10450;SDS011;5273;51.290;6.918;2023-02-28T05:07:52;4.17;;;2.50;;
10450;SDS011;5273;51.290;6.918;2023-02-28T05:10:25;4.67;;;2.67;;
10450;SDS011;5273;51.290;6.918;2023-02-28T05:12:57;4.93;;;2.53;;
10450;SDS011;5273;51.290;6.918;2023-02-28T05:15:26;3.20;;;2.57;;
10450;SDS011;5273;51.290;6.918;2023-02-28T05:17:59;3.43;;;2.10;;
10450;SDS011;5273;51.290;6.918;2023-02-28T05:20:31;3.07;;;1.90;;
10450;SDS011;5273;51.290;6.918;2023-02-28T05:23:10;4.80;;;2.43;;
10450;SDS011;5273;51.290;6.918;2023-02-28T05:25:50;2.77;;;2.27;;
10450;SDS011;5273;51.290;6.918;2023-02-28T05:28:56;3.53;;;2.30;;
10450;SDS011;5273;51.290;6.918;2023-02-28T05:31:30;3.93;;;2.43;;
10450;SDS011;5273;51.290;6.918;2023-02-28T05:34:10;3.27;;;2.63;;
10450;SDS011;5273;51.290;6.918;2023-02-28T05:36:43;3.07;;;2.30;;
10450;SDS011;5273;51.290;6.918;2023-02-28T05:39:14;6.03;;;2.30;;
10450;SDS011;5273;51.290;6.918;2023-02-28T05:41:43;4.67;;;2.77;;
10450;SDS011;5273;51.290;6.918;2023-02-28T05:44:12;10.47;;;3.17;;
10450;SDS011;5273;51.290;6.918;2023-02-28T05:46:44;5.47;;;2.80;;
10450;SDS011;5273;51.290;6.918;2023-02-28T05:49:13;3.17;;;2.50;;
10450;SDS011;5273;51.290;6.918;2023-02-28T05:51:47;2.83;;;2.10;;
10450;SDS011;5273;51.290;6.918;2023-02-28T05:54:19;5.70;;;2.57;;
10450;SDS011;5273;51.290;6.918;2023-02-28T05:56:58;4.90;;;2.50;;
10450;SDS011;5273;51.290;6.918;2023-02-28T05:59:30;3.13;;;2.23;;
10450;SDS011;5273;51.290;6.918;2023-02-28T06:02:07;4.10;;;2.97;;
10450;SDS011;5273;51.290;6.918;2023-02-28T06:04:47;3.70;;;3.00;;
10450;SDS011;5273;51.290;6.918;2023-02-28T06:07:36;8.67;;;3.60;;
10450;SDS011;5273;51.290;6.918;2023-02-28T06:10:13;4.17;;;3.03;;
10450;SDS011;5273;51.290;6.918;2023-02-28T06:12:43;5.67;;;2.73;;
10450;SDS011;5273;51.290;6.918;2023-02-28T06:15:13;2.73;;;2.50;;
10450;SDS011;5273;51.290;6.918;2023-02-28T06:17:49;6.17;;;3.13;;
10450;SDS011;5273;51.290;6.918;2023-02-28T06:20:25;4.83;;;3.07;;
10450;SDS011;5273;51.290;6.918;2023-02-28T06:22:59;5.37;;;2.70;;
10450;SDS011;5273;51.290;6.918;2023-02-28T06:25:46;2.83;;;2.47;;
10450;SDS011;5273;51.290;6.918;2023-02-28T06:28:18;4.73;;;3.33;;
10450;SDS011;5273;51.290;6.918;2023-02-28T06:30:48;3.70;;;3.03;;
10450;SDS011;5273;51.290;6.918;2023-02-28T06:33:27;2.90;;;2.60;;
10450;SDS011;5273;51.290;6.918;2023-02-28T06:36:02;6.70;;;2.97;;
10450;SDS011;5273;51.290;6.918;2023-02-28T06:38:47;4.27;;;2.87;;
10450;SDS011;5273;51.290;6.918;2023-02-28T06:41:21;4.10;;;3.00;;
10450;SDS011;5273;51.290;6.918;2023-02-28T06:43:54;3.53;;;2.57;;
10450;SDS011;5273;51.290;6.918;2023-02-28T06:46:24;3.43;;;2.50;;
10450;SDS011;5273;51.290;6.918;2023-02-28T06:48:57;4.00;;;2.90;;
10450;SDS011;5273;51.290;6.918;2023-02-28T06:51:30;4.10;;;2.53;;
10450;SDS011;5273;51.290;6.918;2023-02-28T06:54:07;7.10;;;4.20;;
10450;SDS011;5273;51.290;6.918;2023-02-28T06:56:39;3.93;;;2.60;;
10450;SDS011;5273;51.290;6.918;2023-02-28T06:59:26;4.50;;;2.53;;
10450;SDS011;5273;51.290;6.918;2023-02-28T07:02:00;4.97;;;2.70;;
10450;SDS011;5273;51.290;6.918;2023-02-28T07:04:36;2.73;;;2.10;;
10450;SDS011;5273;51.290;6.918;2023-02-28T07:07:15;3.33;;;2.17;;
10450;SDS011;5273;51.290;6.918;2023-02-28T07:09:50;2.80;;;2.30;;
10450;SDS011;5273;51.290;6.918;2023-02-28T07:12:21;3.17;;;2.50;;
10450;SDS011;5273;51.290;6.918;2023-02-28T07:14:56;4.77;;;2.23;;
10450;SDS011;5273;51.290;6.918;2023-02-28T07:17:31;2.67;;;2.47;;
10450;SDS011;5273;51.290;6.918;2023-02-28T07:20:04;3.43;;;1.97;;
10450;SDS011;5273;51.290;6.918;2023-02-28T07:22:35;2.60;;;2.13;;
10450;SDS011;5273;51.290;6.918;2023-02-28T07:25:08;2.75;;;2.30;;
10450;SDS011;5273;51.290;6.918;2023-02-28T07:27:43;3.30;;;2.03;;
10450;SDS011;5273;51.290;6.918;2023-02-28T07:30:17;2.43;;;2.00;;
10450;SDS011;5273;51.290;6.918;2023-02-28T07:32:57;3.08;;;2.13;;
10450;SDS011;5273;51.290;6.918;2023-02-28T07:35:40;2.60;;;1.90;;
10450;SDS011;5273;51.290;6.918;2023-02-28T07:38:13;2.38;;;1.90;;
10450;SDS011;5273;51.290;6.918;2023-02-28T07:40:42;2.60;;;1.90;;
10450;SDS011;5273;51.290;6.918;2023-02-28T07:43:24;2.33;;;1.75;;
10450;SDS011;5273;51.290;6.918;2023-02-28T07:46:02;2.95;;;1.60;;
10450;SDS011;5273;51.290;6.918;2023-02-28T07:48:31;4.20;;;2.00;;
10450;SDS011;5273;51.290;6.918;2023-02-28T07:51:13;2.60;;;1.60;;
10450;SDS011;5273;51.290;6.918;2023-02-28T07:54:00;2.90;;;1.77;;
10450;SDS011;5273;51.290;6.918;2023-02-28T07:56:31;1.77;;;1.67;;
10450;SDS011;5273;51.290;6.918;2023-02-28T08:01:55;3.10;;;2.08;;
10450;SDS011;5273;51.290;6.918;2023-02-28T08:04:26;1.73;;;1.63;;
10450;SDS011;5273;51.290;6.918;2023-02-28T08:07:04;2.17;;;1.65;;
10450;SDS011;5273;51.290;6.918;2023-02-28T08:09:39;4.15;;;1.70;;
10450;SDS011;5273;51.290;6.918;2023-02-28T08:12:08;4.30;;;1.92;;
10450;SDS011;5273;51.290;6.918;2023-02-28T08:14:45;2.13;;;1.85;;
10450;SDS011;5273;51.290;6.918;2023-02-28T08:17:21;5.00;;;2.50;;
10450;SDS011;5273;51.290;6.918;2023-02-28T08:19:51;2.38;;;1.58;;
10450;SDS011;5273;51.290;6.918;2023-02-28T08:22:25;3.92;;;1.77;;
10450;SDS011;5273;51.290;6.918;2023-02-28T08:24:55;6.47;;;2.03;;
10450;SDS011;5273;51.290;6.918;2023-02-28T08:27:23;4.60;;;1.95;;
10450;SDS011;5273;51.290;6.918;2023-02-28T08:29:56;2.10;;;1.88;;
10450;SDS011;5273;51.290;6.918;2023-02-28T08:32:28;1.85;;;1.60;;
10450;SDS011;5273;51.290;6.918;2023-02-28T08:35:02;2.95;;;2.15;;
10450;SDS011;5273;51.290;6.918;2023-02-28T08:37:35;4.38;;;1.83;;
10450;SDS011;5273;51.290;6.918;2023-02-28T08:40:16;4.78;;;2.45;;
10450;SDS011;5273;51.290;6.918;2023-02-28T08:42:47;1.77;;;1.50;;
10450;SDS011;5273;51.290;6.918;2023-02-28T08:45:31;1.73;;;1.63;;
10450;SDS011;5273;51.290;6.918;2023-02-28T08:48:03;1.98;;;1.50;;
10450;SDS011;5273;51.290;6.918;2023-02-28T08:50:36;1.85;;;1.75;;
10450;SDS011;5273;51.290;6.918;2023-02-28T08:53:15;1.52;;;1.42;;
10450;SDS011;5273;51.290;6.918;2023-02-28T08:59:06;1.60;;;1.50;;
10450;SDS011;5273;51.290;6.918;2023-02-28T09:01:49;1.33;;;1.33;;
10450;SDS011;5273;51.290;6.918;2023-02-28T09:04:20;2.00;;;1.50;;
10450;SDS011;5273;51.290;6.918;2023-02-28T09:07:00;1.77;;;1.50;;
10450;SDS011;5273;51.290;6.918;2023-02-28T09:09:39;5.97;;;2.10;;
10450;SDS011;5273;51.290;6.918;2023-02-28T09:12:18;1.63;;;1.48;;
10450;SDS011;5273;51.290;6.918;2023-02-28T09:14:45;1.88;;;1.67;;
10450;SDS011;5273;51.290;6.918;2023-02-28T09:17:14;6.57;;;1.80;;
10450;SDS011;5273;51.290;6.918;2023-02-28T09:19:41;1.95;;;1.70;;
10450;SDS011;5273;51.290;6.918;2023-02-28T09:22:08;2.00;;;1.80;;
10450;SDS011;5273;51.290;6.918;2023-02-28T09:24:36;1.80;;;1.70;;
10450;SDS011;5273;51.290;6.918;2023-02-28T09:27:03;1.98;;;1.80;;
10450;SDS011;5273;51.290;6.918;2023-02-28T09:29:32;1.50;;;1.40;;
10450;SDS011;5273;51.290;6.918;2023-02-28T09:32:00;1.90;;;1.80;;
10450;SDS011;5273;51.290;6.918;2023-02-28T09:34:29;6.28;;;1.90;;
10450;SDS011;5273;51.290;6.918;2023-02-28T09:36:56;1.75;;;1.65;;
10450;SDS011;5273;51.290;6.918;2023-02-28T09:39:23;1.88;;;1.77;;
10450;SDS011;5273;51.290;6.918;2023-02-28T09:41:52;2.25;;;1.77;;
10450;SDS011;5273;51.290;6.918;2023-02-28T09:44:22;2.00;;;1.80;;
10450;SDS011;5273;51.290;6.918;2023-02-28T09:46:56;2.40;;;1.58;;
10450;SDS011;5273;51.290;6.918;2023-02-28T09:49:28;1.67;;;1.58;;
10450;SDS011;5273;51.290;6.918;2023-02-28T09:52:01;2.13;;;1.77;;
10450;SDS011;5273;51.290;6.918;2023-02-28T09:54:31;2.53;;;1.75;;
10450;SDS011;5273;51.290;6.918;2023-02-28T09:56:59;2.85;;;1.73;;
10450;SDS011;5273;51.290;6.918;2023-02-28T09:59:34;2.65;;;2.20;;
10450;SDS011;5273;51.290;6.918;2023-02-28T10:02:11;3.53;;;2.40;;
10450;SDS011;5273;51.290;6.918;2023-02-28T10:04:48;2.93;;;1.63;;
10450;SDS011;5273;51.290;6.918;2023-02-28T10:07:22;1.70;;;1.60;;
10450;SDS011;5273;51.290;6.918;2023-02-28T10:10:02;3.27;;;2.23;;
10450;SDS011;5273;51.290;6.918;2023-02-28T10:12:34;2.30;;;1.97;;
10450;SDS011;5273;51.290;6.918;2023-02-28T10:15:07;2.60;;;1.63;;
10450;SDS011;5273;51.290;6.918;2023-02-28T10:17:41;1.60;;;1.50;;
10450;SDS011;5273;51.290;6.918;2023-02-28T10:20:13;2.77;;;1.43;;
10450;SDS011;5273;51.290;6.918;2023-02-28T10:22:49;2.87;;;1.60;;
10450;SDS011;5273;51.290;6.918;2023-02-28T10:25:20;3.00;;;1.43;;
10450;SDS011;5273;51.290;6.918;2023-02-28T10:27:53;1.67;;;1.33;;
10450;SDS011;5273;51.290;6.918;2023-02-28T10:30:25;4.20;;;1.50;;
10450;SDS011;5273;51.290;6.918;2023-02-28T10:32:52;2.70;;;1.97;;
10450;SDS011;5273;51.290;6.918;2023-02-28T10:35:22;1.97;;;1.57;;
10450;SDS011;5273;51.290;6.918;2023-02-28T10:37:50;1.97;;;1.57;;
10450;SDS011;5273;51.290;6.918;2023-02-28T10:40:28;2.50;;;1.50;;
10450;SDS011;5273;51.290;6.918;2023-02-28T10:42:58;1.90;;;1.20;;
10450;SDS011;5273;51.290;6.918;2023-02-28T10:45:26;2.00;;;1.80;;
10450;SDS011;5273;51.290;6.918;2023-02-28T10:47:57;1.40;;;1.20;;
10450;SDS011;5273;51.290;6.918;2023-02-28T10:50:27;1.83;;;1.57;;
10450;SDS011;5273;51.290;6.918;2023-02-28T10:53:05;1.20;;;1.10;;
10450;SDS011;5273;51.290;6.918;2023-02-28T10:55:42;1.87;;;1.40;;
10450;SDS011;5273;51.290;6.918;2023-02-28T10:58:20;1.37;;;1.20;;
10450;SDS011;5273;51.290;6.918;2023-02-28T11:00:48;2.53;;;1.50;;
10450;SDS011;5273;51.290;6.918;2023-02-28T11:03:22;2.60;;;1.50;;
10450;SDS011;5273;51.290;6.918;2023-02-28T11:05:53;2.90;;;1.43;;
10450;SDS011;5273;51.290;6.918;2023-02-28T11:08:19;1.57;;;1.23;;
10450;SDS011;5273;51.290;6.918;2023-02-28T11:10:47;1.30;;;1.20;;
10450;SDS011;5273;51.290;6.918;2023-02-28T11:13:20;2.53;;;1.33;;
10450;SDS011;5273;51.290;6.918;2023-02-28T11:15:52;1.70;;;1.53;;
10450;SDS011;5273;51.290;6.918;2023-02-28T11:18:22;1.77;;;1.30;;
10450;SDS011;5273;51.290;6.918;2023-02-28T11:20:55;1.83;;;1.60;;
10450;SDS011;5273;51.290;6.918;2023-02-28T11:23:24;1.90;;;1.47;;
10450;SDS011;5273;51.290;6.918;2023-02-28T11:25:54;2.60;;;1.70;;
10450;SDS011;5273;51.290;6.918;2023-02-28T11:28:25;2.50;;;1.80;;
10450;SDS011;5273;51.290;6.918;2023-02-28T11:31:03;2.00;;;1.73;;
10450;SDS011;5273;51.290;6.918;2023-02-28T11:33:41;1.37;;;1.23;;
10450;SDS011;5273;51.290;6.918;2023-02-28T11:36:12;1.63;;;1.50;;
10450;SDS011;5273;51.290;6.918;2023-02-28T11:38:42;3.63;;;1.80;;
10450;SDS011;5273;51.290;6.918;2023-02-28T11:41:14;1.93;;;1.67;;
10450;SDS011;5273;51.290;6.918;2023-02-28T11:43:53;2.00;;;1.47;;
10450;SDS011;5273;51.290;6.918;2023-02-28T11:46:30;2.33;;;1.40;;
10450;SDS011;5273;51.290;6.918;2023-02-28T11:49:06;1.50;;;1.37;;
10450;SDS011;5273;51.290;6.918;2023-02-28T11:51:49;2.50;;;1.63;;
10450;SDS011;5273;51.290;6.918;2023-02-28T11:54:35;2.07;;;1.63;;
10450;SDS011;5273;51.290;6.918;2023-02-28T11:57:21;1.43;;;1.30;;
10450;SDS011;5273;51.290;6.918;2023-02-28T11:59:59;3.23;;;1.77;;
10450;SDS011;5273;51.290;6.918;2023-02-28T12:02:31;2.73;;;1.70;;
10450;SDS011;5273;51.290;6.918;2023-02-28T12:05:15;4.30;;;2.20;;
10450;SDS011;5273;51.290;6.918;2023-02-28T12:07:56;3.00;;;1.90;;
10450;SDS011;5273;51.290;6.918;2023-02-28T12:10:30;3.00;;;1.63;;
10450;SDS011;5273;51.290;6.918;2023-02-28T12:13:10;2.33;;;2.13;;
10450;SDS011;5273;51.290;6.918;2023-02-28T12:15:50;3.43;;;1.80;;
10450;SDS011;5273;51.290;6.918;2023-02-28T12:18:37;3.63;;;1.70;;
10450;SDS011;5273;51.290;6.918;2023-02-28T12:21:18;2.97;;;1.80;;
10450;SDS011;5273;51.290;6.918;2023-02-28T12:24:03;1.70;;;1.60;;
10450;SDS011;5273;51.290;6.918;2023-02-28T12:26:44;3.00;;;1.90;;
10450;SDS011;5273;51.290;6.918;2023-02-28T12:29:15;1.80;;;1.63;;
10450;SDS011;5273;51.290;6.918;2023-02-28T12:31:47;1.50;;;1.40;;
10450;SDS011;5273;51.290;6.918;2023-02-28T12:34:20;4.43;;;1.83;;
10450;SDS011;5273;51.290;6.918;2023-02-28T12:36:51;2.43;;;1.90;;
10450;SDS011;5273;51.290;6.918;2023-02-28T12:39:23;2.43;;;1.67;;
10450;SDS011;5273;51.290;6.918;2023-02-28T12:41:56;2.17;;;1.97;;
10450;SDS011;5273;51.290;6.918;2023-02-28T12:44:30;2.33;;;1.80;;
10450;SDS011;5273;51.290;6.918;2023-02-28T12:47:01;2.90;;;1.80;;
10450;SDS011;5273;51.290;6.918;2023-02-28T12:49:31;2.20;;;1.80;;
10450;SDS011;5273;51.290;6.918;2023-02-28T12:52:00;3.40;;;1.90;;
10450;SDS011;5273;51.290;6.918;2023-02-28T12:54:31;2.60;;;1.97;;
10450;SDS011;5273;51.290;6.918;2023-02-28T12:57:02;3.23;;;1.70;;
10450;SDS011;5273;51.290;6.918;2023-02-28T12:59:37;4.10;;;1.70;;
10450;SDS011;5273;51.290;6.918;2023-02-28T13:05:22;3.83;;;1.80;;
10450;SDS011;5273;51.290;6.918;2023-02-28T13:08:04;3.03;;;1.50;;
10450;SDS011;5273;51.290;6.918;2023-02-28T13:10:54;1.70;;;1.60;;
10450;SDS011;5273;51.290;6.918;2023-02-28T13:13:22;3.47;;;2.00;;
10450;SDS011;5273;51.290;6.918;2023-02-28T13:15:57;3.43;;;1.47;;
10450;SDS011;5273;51.290;6.918;2023-02-28T13:18:27;3.50;;;1.87;;
10450;SDS011;5273;51.290;6.918;2023-02-28T13:20:57;2.10;;;1.70;;
10450;SDS011;5273;51.290;6.918;2023-02-28T13:23:38;1.60;;;1.50;;
10450;SDS011;5273;51.290;6.918;2023-02-28T13:26:08;3.83;;;2.00;;
10450;SDS011;5273;51.290;6.918;2023-02-28T13:28:57;8.03;;;2.07;;
10450;SDS011;5273;51.290;6.918;2023-02-28T13:31:25;1.93;;;1.80;;
10450;SDS011;5273;51.290;6.918;2023-02-28T13:34:05;2.93;;;1.93;;
10450;SDS011;5273;51.290;6.918;2023-02-28T13:36:40;2.17;;;1.67;;
10450;SDS011;5273;51.290;6.918;2023-02-28T13:45:22;2.30;;;2.00;;
10450;SDS011;5273;51.290;6.918;2023-02-28T13:47:56;1.80;;;1.70;;
10450;SDS011;5273;51.290;6.918;2023-02-28T13:50:27;2.47;;;1.80;;
10450;SDS011;5273;51.290;6.918;2023-02-28T13:55:57;2.37;;;1.77;;
10450;SDS011;5273;51.290;6.918;2023-02-28T13:58:39;2.80;;;2.10;;
10450;SDS011;5273;51.290;6.918;2023-02-28T14:01:17;1.83;;;1.73;;
10450;SDS011;5273;51.290;6.918;2023-02-28T14:04:02;3.17;;;1.70;;
10450;SDS011;5273;51.290;6.918;2023-02-28T14:06:46;2.20;;;2.00;;
10450;SDS011;5273;51.290;6.918;2023-02-28T14:09:17;3.47;;;1.90;;
10450;SDS011;5273;51.290;6.918;2023-02-28T14:11:48;3.23;;;2.00;;
10450;SDS011;5273;51.290;6.918;2023-02-28T14:17:17;7.53;;;2.30;;
10450;SDS011;5273;51.290;6.918;2023-02-28T14:19:45;3.43;;;2.27;;
10450;SDS011;5273;51.290;6.918;2023-02-28T14:22:17;1.87;;;1.73;;
10450;SDS011;5273;51.290;6.918;2023-02-28T14:25:07;4.73;;;2.07;;
10450;SDS011;5273;51.290;6.918;2023-02-28T14:27:37;1.93;;;1.83;;
10450;SDS011;5273;51.290;6.918;2023-02-28T14:33:31;2.43;;;2.00;;
10450;SDS011;5273;51.290;6.918;2023-02-28T14:36:08;2.90;;;2.30;;
10450;SDS011;5273;51.290;6.918;2023-02-28T14:38:43;3.40;;;2.20;;
10450;SDS011;5273;51.290;6.918;2023-02-28T14:41:15;3.23;;;2.43;;
10450;SDS011;5273;51.290;6.918;2023-02-28T14:43:49;4.43;;;2.23;;
10450;SDS011;5273;51.290;6.918;2023-02-28T14:46:21;6.90;;;2.40;;
10450;SDS011;5273;51.290;6.918;2023-02-28T14:48:52;2.40;;;2.00;;
10450;SDS011;5273;51.290;6.918;2023-02-28T14:51:20;3.60;;;2.23;;
10450;SDS011;5273;51.290;6.918;2023-02-28T14:53:50;3.33;;;2.30;;
10450;SDS011;5273;51.290;6.918;2023-02-28T14:56:19;4.97;;;1.93;;
10450;SDS011;5273;51.290;6.918;2023-02-28T14:58:51;3.87;;;2.33;;
10450;SDS011;5273;51.290;6.918;2023-02-28T15:01:19;5.77;;;2.10;;
10450;SDS011;5273;51.290;6.918;2023-02-28T15:03:47;6.47;;;2.50;;
10450;SDS011;5273;51.290;6.918;2023-02-28T15:06:16;2.67;;;2.13;;
10450;SDS011;5273;51.290;6.918;2023-02-28T15:08:45;4.00;;;2.30;;
10450;SDS011;5273;51.290;6.918;2023-02-28T15:11:13;2.63;;;2.40;;
10450;SDS011;5273;51.290;6.918;2023-02-28T15:13:45;2.40;;;2.10;;
10450;SDS011;5273;51.290;6.918;2023-02-28T15:16:14;2.43;;;2.00;;
10450;SDS011;5273;51.290;6.918;2023-02-28T15:18:46;1.87;;;1.70;;
10450;SDS011;5273;51.290;6.918;2023-02-28T15:21:17;2.90;;;2.33;;
10450;SDS011;5273;51.290;6.918;2023-02-28T15:23:48;2.73;;;2.30;;
10450;SDS011;5273;51.290;6.918;2023-02-28T15:26:18;3.97;;;2.60;;
10450;SDS011;5273;51.290;6.918;2023-02-28T15:28:48;2.90;;;2.17;;
10450;SDS011;5273;51.290;6.918;2023-02-28T15:31:18;2.97;;;2.53;;
10450;SDS011;5273;51.290;6.918;2023-02-28T15:33:51;2.73;;;2.43;;
10450;SDS011;5273;51.290;6.918;2023-02-28T15:36:23;4.63;;;2.40;;
10450;SDS011;5273;51.290;6.918;2023-02-28T15:38:53;2.40;;;2.00;;
10450;SDS011;5273;51.290;6.918;2023-02-28T15:41:26;2.47;;;2.23;;
10450;SDS011;5273;51.290;6.918;2023-02-28T15:44:14;10.73;;;5.57;;
10450;SDS011;5273;51.290;6.918;2023-02-28T15:46:43;4.13;;;3.13;;
10450;SDS011;5273;51.290;6.918;2023-02-28T15:49:20;3.60;;;2.70;;
10450;SDS011;5273;51.290;6.918;2023-02-28T15:51:50;4.87;;;3.17;;
10450;SDS011;5273;51.290;6.918;2023-02-28T15:54:19;5.33;;;3.87;;
10450;SDS011;5273;51.290;6.918;2023-02-28T15:56:49;2.97;;;2.33;;
10450;SDS011;5273;51.290;6.918;2023-02-28T15:59:20;2.40;;;2.20;;
10450;SDS011;5273;51.290;6.918;2023-02-28T16:02:01;3.03;;;2.70;;
10450;SDS011;5273;51.290;6.918;2023-02-28T16:04:37;3.50;;;3.00;;
10450;SDS011;5273;51.290;6.918;2023-02-28T16:07:21;4.63;;;2.50;;
10450;SDS011;5273;51.290;6.918;2023-02-28T16:09:49;5.77;;;2.90;;
10450;SDS011;5273;51.290;6.918;2023-02-28T16:12:16;3.50;;;2.40;;
10450;SDS011;5273;51.290;6.918;2023-02-28T16:14:43;8.10;;;3.07;;
10450;SDS011;5273;51.290;6.918;2023-02-28T16:17:15;3.40;;;2.80;;